createdAt,value
2024-03-05T00:01:06.617Z,6.95
2024-03-05T00:04:08.352Z,6.93
2024-03-05T00:07:10.072Z,6.84
2024-03-05T00:10:12.047Z,6.87
2024-03-05T00:13:15.294Z,6.66
2024-03-05T00:16:17.085Z,6.61
2024-03-05T00:19:18.936Z,6.53
2024-03-05T00:22:20.924Z,6.38
2024-03-05T00:25:22.722Z,6.29
2024-03-05T00:28:25.931Z,6.28
2024-03-05T00:31:27.859Z,6.26
2024-03-05T00:34:29.777Z,6.27
2024-03-05T00:37:31.672Z,6.28
2024-03-05T00:40:33.468Z,6.34
2024-03-05T00:43:36.678Z,6.35
2024-03-05T00:46:38.612Z,6.21
2024-03-05T00:49:40.450Z,6.10
2024-03-05T00:52:42.331Z,6.07
2024-03-05T00:55:44.241Z,6.07
2024-03-05T00:58:47.517Z,6.13
2024-03-05T01:01:49.388Z,6.21
2024-03-05T01:04:51.524Z,6.26
2024-03-05T01:07:53.482Z,6.26
2024-03-05T01:10:55.597Z,6.12
2024-03-05T01:13:58.820Z,6.16
2024-03-05T01:17:00.653Z,6.13
2024-03-05T01:20:02.567Z,6.13
2024-03-05T01:23:04.737Z,6.10
2024-03-05T01:26:06.556Z,6.11
2024-03-05T01:29:10.049Z,6.18
2024-03-05T01:32:11.753Z,6.28
2024-03-05T01:35:13.561Z,6.26
2024-03-05T01:38:15.365Z,6.23
2024-03-05T01:41:17.075Z,6.32
2024-03-05T01:44:20.275Z,6.41
2024-03-05T01:47:21.994Z,6.47
2024-03-05T01:50:23.773Z,6.42
2024-03-05T01:53:26.374Z,6.37
2024-03-05T01:56:28.669Z,6.31
2024-03-05T01:59:31.896Z,6.32
2024-03-05T02:02:33.683Z,6.39
2024-03-05T02:05:35.408Z,6.42
2024-03-05T02:08:37.113Z,6.44
2024-03-05T02:11:49.503Z,6.49
2024-03-05T02:14:59.036Z,6.53
2024-03-05T02:18:00.798Z,6.55
2024-03-05T02:21:04.535Z,6.56
2024-03-05T02:24:06.618Z,6.57
2024-03-05T02:27:11.966Z,6.60
2024-03-05T02:30:16.475Z,6.61
2024-03-05T02:33:19.995Z,6.59
2024-03-05T02:36:23.159Z,6.61
2024-03-05T02:39:24.908Z,6.58
2024-03-05T02:42:26.612Z,6.47
2024-03-05T02:45:28.395Z,6.50
2024-03-05T02:48:30.155Z,6.43
2024-03-05T02:51:33.200Z,6.42
2024-03-05T02:54:35.017Z,6.44
2024-03-05T02:57:38.561Z,6.40
2024-03-05T03:00:40.359Z,6.44
2024-03-05T03:03:42.102Z,6.41
2024-03-05T03:06:45.163Z,6.31
2024-03-05T03:09:46.970Z,6.39
2024-03-05T03:12:49.513Z,6.41
2024-03-05T03:15:51.558Z,6.47
2024-03-05T03:18:53.354Z,6.47
2024-03-05T03:21:56.421Z,6.45
2024-03-05T03:24:58.240Z,6.45
2024-03-05T03:27:59.967Z,6.48
2024-03-05T03:31:01.754Z,6.49
2024-03-05T03:34:03.441Z,6.49
2024-03-05T03:37:06.595Z,6.50
2024-03-05T03:40:09.338Z,6.50
2024-03-05T03:43:11.171Z,6.48
2024-03-05T03:46:12.915Z,6.50
2024-03-05T03:49:14.725Z,6.48
2024-03-05T03:52:18.213Z,6.45
2024-03-05T03:55:20.062Z,6.41
2024-03-05T03:58:21.832Z,6.38
2024-03-05T04:01:23.697Z,6.42
2024-03-05T04:04:25.635Z,6.19
2024-03-05T04:07:28.784Z,6.20
2024-03-05T04:10:30.554Z,6.14
2024-03-05T04:13:32.319Z,6.18
2024-03-05T04:16:34.184Z,6.20
2024-03-05T04:19:36.009Z,6.22
2024-03-05T04:22:40.102Z,6.20
2024-03-05T04:25:42.455Z,6.24
2024-03-05T04:28:45.008Z,6.20
2024-03-05T04:31:50.968Z,6.23
2024-03-05T04:34:56.673Z,6.23
2024-03-05T04:37:59.962Z,6.24
2024-03-05T04:41:01.774Z,6.20
2024-03-05T04:44:03.591Z,6.23
2024-03-05T04:47:05.552Z,6.24
2024-03-05T04:50:08.271Z,6.22
2024-03-05T04:53:11.340Z,6.26
2024-03-05T04:56:13.065Z,6.24
2024-03-05T04:59:14.783Z,6.38
2024-03-05T05:02:16.536Z,6.23
2024-03-05T05:05:18.453Z,6.08
2024-03-05T05:08:21.624Z,5.92
2024-03-05T05:11:23.406Z,5.95
2024-03-05T05:14:25.245Z,6.02
2024-03-05T05:17:27.016Z,5.97
2024-03-05T05:20:28.768Z,5.90
2024-03-05T05:23:31.876Z,5.93
2024-03-05T05:26:33.640Z,5.94
2024-03-05T05:29:40.649Z,5.87
2024-03-05T05:32:44.368Z,5.88
2024-03-05T05:35:46.101Z,5.89
2024-03-05T05:38:49.213Z,5.93
2024-03-05T05:41:50.994Z,5.88
2024-03-05T05:44:52.861Z,5.86
2024-03-05T05:47:55.059Z,5.85
2024-03-05T05:50:57.286Z,5.85
2024-03-05T05:54:00.517Z,5.86
2024-03-05T05:57:02.302Z,5.92
2024-03-05T06:00:05.118Z,5.77
2024-03-05T06:03:07.435Z,5.89
2024-03-05T06:06:09.224Z,5.96
2024-03-05T06:09:12.385Z,5.99
2024-03-05T06:12:14.175Z,5.89
2024-03-05T06:15:16.599Z,5.87
2024-03-05T06:18:18.563Z,5.92
2024-03-05T06:21:20.316Z,5.90
2024-03-05T06:24:23.429Z,5.93
2024-03-05T06:27:25.203Z,5.89
2024-03-05T06:30:27.223Z,5.95
2024-03-05T06:33:29.136Z,5.98
2024-03-05T06:36:30.948Z,5.92
2024-03-05T06:39:34.040Z,6.10
2024-03-05T06:42:35.829Z,6.12
2024-03-05T06:45:37.596Z,5.98
2024-03-05T06:48:39.541Z,5.95
2024-03-05T06:51:41.541Z,5.98
2024-03-05T06:54:47.408Z,6.10
2024-03-05T06:57:50.850Z,6.13
2024-03-05T07:00:52.599Z,6.10
2024-03-05T07:03:54.375Z,6.14
2024-03-05T07:06:56.144Z,6.10
2024-03-05T07:09:59.257Z,6.11
2024-03-05T07:13:01.224Z,6.09
2024-03-05T07:16:04.069Z,6.12
2024-03-05T07:19:05.828Z,6.10
2024-03-05T07:22:07.551Z,6.16
2024-03-05T07:25:10.793Z,6.19
2024-03-05T07:28:12.651Z,6.15
2024-03-05T07:31:15.555Z,6.12
2024-03-05T07:34:17.425Z,6.24
2024-03-05T07:37:19.271Z,6.28
2024-03-05T07:40:22.586Z,6.17
2024-03-05T07:43:24.425Z,6.23
2024-03-05T07:46:26.165Z,6.33
2024-03-05T07:49:27.979Z,6.37
2024-03-05T07:52:29.839Z,6.30
2024-03-05T07:55:36.148Z,6.41
2024-03-05T07:58:41.521Z,6.46
2024-03-05T08:01:43.431Z,6.36
2024-03-05T08:04:45.311Z,6.38
2024-03-05T08:07:47.224Z,6.48
2024-03-05T08:10:50.563Z,6.46
2024-03-05T08:13:52.450Z,6.48
2024-03-05T08:16:54.329Z,6.54
2024-03-05T08:19:56.174Z,6.63
2024-03-05T08:22:57.949Z,6.71
2024-03-05T08:26:01.548Z,6.77
2024-03-05T08:29:03.599Z,6.81
2024-03-05T08:32:05.744Z,6.81
2024-03-05T08:35:08.441Z,6.97
2024-03-05T08:38:10.286Z,6.84
2024-03-05T08:41:13.436Z,6.97
2024-03-05T08:44:16.649Z,6.86
2024-03-05T08:47:18.374Z,7.05
2024-03-05T08:50:21.052Z,7.08
2024-03-05T08:53:22.815Z,7.09
2024-03-05T08:56:25.885Z,7.14
2024-03-05T08:59:27.819Z,7.13
2024-03-05T09:02:29.887Z,7.30
2024-03-05T09:05:31.683Z,7.37
2024-03-05T09:08:33.478Z,7.27
2024-03-05T09:11:36.713Z,7.36
2024-03-05T09:14:38.482Z,7.37
2024-03-05T09:17:40.291Z,7.44
2024-03-05T09:20:42.460Z,7.54
2024-03-05T09:23:44.286Z,7.39
2024-03-05T09:26:47.426Z,7.43
2024-03-05T09:29:49.159Z,7.42
2024-03-05T09:32:50.914Z,7.36
2024-03-05T09:35:52.723Z,7.57
2024-03-05T09:38:54.408Z,7.57
2024-03-05T09:41:57.516Z,7.64
2024-03-05T09:45:00.481Z,7.62
2024-03-05T09:48:03.058Z,7.71
2024-03-05T09:51:08.592Z,7.74
2024-03-05T09:54:10.781Z,7.78
2024-03-05T09:57:16.360Z,7.83
2024-03-05T10:00:19.506Z,7.78
2024-03-05T10:03:21.998Z,7.92
2024-03-05T10:06:23.732Z,8.01
2024-03-05T10:09:26.086Z,7.79
2024-03-05T10:12:29.365Z,7.83
2024-03-05T10:15:31.072Z,7.89
2024-03-05T10:18:32.932Z,7.91
2024-03-05T10:21:34.715Z,7.85
2024-03-05T10:24:36.496Z,7.91
2024-03-05T10:27:39.638Z,7.88
2024-03-05T10:30:41.389Z,7.82
2024-03-05T10:33:43.244Z,7.90
2024-03-05T10:36:45.043Z,8.01
2024-03-05T10:39:47.644Z,8.04
2024-03-05T10:42:53.599Z,8.02
2024-03-05T10:45:55.433Z,8.08
2024-03-05T10:48:58.383Z,8.09
2024-03-05T10:52:01.417Z,8.14
2024-03-05T10:55:06.481Z,8.21
2024-03-05T10:58:10.580Z,8.14
2024-03-05T11:01:17.869Z,8.18
2024-03-05T11:04:22.410Z,8.16
2024-03-05T11:07:24.436Z,8.26
2024-03-05T11:10:27.737Z,8.26
2024-03-05T11:13:33.367Z,8.27
2024-03-05T11:16:35.392Z,8.24
2024-03-05T11:19:38.536Z,8.30
2024-03-05T11:22:42.364Z,8.31
2024-03-05T11:25:46.899Z,8.42
2024-03-05T11:28:50.657Z,8.54
2024-03-05T11:31:54.268Z,8.52
2024-03-05T11:34:56.154Z,8.51
2024-03-05T11:38:02.664Z,8.52
2024-03-05T11:41:04.734Z,8.49
2024-03-05T11:44:08.231Z,8.45
2024-03-05T11:47:10.588Z,8.39
2024-03-05T11:50:14.028Z,8.37
2024-03-05T11:53:15.963Z,8.45
2024-03-05T11:56:19.558Z,8.45
2024-03-05T11:59:33.688Z,8.45
2024-03-05T12:02:35.568Z,8.39
2024-03-05T12:05:42.781Z,8.55
2024-03-05T12:08:44.569Z,8.50
2024-03-05T12:12:00.118Z,8.39
2024-03-05T12:15:05.748Z,8.41
2024-03-05T12:18:09.666Z,8.35
2024-03-05T12:21:11.613Z,8.48
2024-03-05T12:24:13.407Z,8.47
2024-03-05T12:27:16.261Z,8.36
2024-03-05T12:30:20.937Z,8.58
2024-03-05T12:33:26.232Z,8.48
2024-03-05T12:36:27.997Z,8.46
2024-03-05T12:39:29.835Z,8.49
2024-03-05T12:42:31.543Z,8.41
2024-03-05T12:45:36.418Z,8.46
2024-03-05T12:48:38.127Z,8.46
2024-03-05T12:51:39.909Z,8.46
2024-03-05T12:54:41.690Z,8.40
2024-03-05T12:57:45.142Z,8.34
2024-03-05T13:00:49.243Z,8.34
2024-03-05T13:03:51.039Z,8.41
2024-03-05T13:06:52.998Z,8.53
2024-03-05T13:09:55.019Z,8.44
2024-03-05T13:12:56.805Z,8.40
2024-03-05T13:15:59.989Z,8.36
2024-03-05T13:19:01.713Z,8.43
2024-03-05T13:22:03.946Z,8.58
2024-03-05T13:25:06.064Z,8.52
2024-03-05T13:28:07.953Z,8.50
2024-03-05T13:31:11.162Z,8.43
2024-03-05T13:34:13.114Z,8.48
2024-03-05T13:37:14.938Z,8.39
2024-03-05T13:40:16.855Z,8.40
2024-03-05T13:43:18.667Z,8.45
2024-03-05T13:46:21.793Z,8.45
2024-03-05T13:49:23.574Z,8.33
2024-03-05T13:52:25.351Z,8.28
2024-03-05T13:55:27.434Z,8.34
2024-03-05T13:58:29.425Z,8.41
2024-03-05T14:01:32.908Z,8.24
2024-03-05T14:04:34.803Z,8.25
2024-03-05T14:07:36.631Z,8.31
2024-03-05T14:10:38.453Z,8.33
2024-03-05T14:13:40.376Z,8.23
2024-03-05T14:16:43.604Z,8.30
2024-03-05T14:19:45.507Z,8.21
2024-03-05T14:22:47.711Z,8.23
2024-03-05T14:25:49.758Z,8.41
2024-03-05T14:28:51.642Z,8.24
2024-03-05T14:31:54.878Z,8.33
2024-03-05T14:34:56.757Z,8.28
2024-03-05T14:37:58.695Z,8.25
2024-03-05T14:41:00.627Z,8.33
2024-03-05T14:44:02.498Z,8.36
2024-03-05T14:47:06.083Z,8.34
2024-03-05T14:50:08.403Z,8.26
2024-03-05T14:53:10.225Z,8.30
2024-03-05T14:56:12.133Z,8.51
2024-03-05T14:59:14.114Z,8.60
2024-03-05T15:02:17.356Z,8.58
2024-03-05T15:05:20.297Z,8.73
2024-03-05T15:08:22.223Z,8.82
2024-03-05T15:11:24.187Z,8.85
2024-03-05T15:14:26.021Z,8.93
2024-03-05T15:17:29.273Z,8.98
2024-03-05T15:20:31.080Z,9.00
2024-03-05T15:23:32.876Z,9.07
2024-03-05T15:26:34.668Z,9.12
2024-03-05T15:29:36.431Z,9.14
2024-03-05T15:32:44.169Z,9.22
2024-03-05T15:35:46.054Z,9.15
2024-03-05T15:38:47.771Z,9.13
2024-03-05T15:41:49.584Z,9.19
2024-03-05T15:44:51.314Z,9.15
2024-03-05T15:47:54.682Z,9.17
2024-03-05T15:50:56.480Z,9.19
2024-03-05T15:53:58.225Z,9.23
2024-03-05T15:56:59.938Z,9.22
2024-03-05T16:00:01.765Z,9.24
2024-03-05T16:03:06.514Z,9.28
2024-03-05T16:06:17.877Z,9.22
2024-03-05T16:09:20.950Z,9.25
2024-03-05T16:12:22.846Z,9.23
2024-03-05T16:15:24.832Z,9.23
2024-03-05T16:18:28.062Z,9.22
2024-03-05T16:21:29.953Z,9.18
2024-03-05T16:24:31.789Z,9.18
2024-03-05T16:27:33.554Z,9.23
2024-03-05T16:30:35.318Z,9.26
2024-03-05T16:33:38.472Z,9.24
2024-03-05T16:36:40.311Z,9.21
2024-03-05T16:39:42.068Z,9.13
2024-03-05T16:42:43.893Z,9.10
2024-03-05T16:45:45.633Z,9.03
2024-03-05T16:48:48.728Z,9.00
2024-03-05T16:51:50.484Z,8.94
2024-03-05T16:54:52.204Z,8.91
2024-03-05T16:57:55.718Z,8.85
2024-03-05T17:00:57.526Z,8.85
2024-03-05T17:04:00.658Z,8.80
2024-03-05T17:07:02.431Z,8.76
2024-03-05T17:10:04.792Z,8.77
2024-03-05T17:13:06.554Z,8.79
2024-03-05T17:16:08.391Z,8.73
2024-03-05T17:19:11.493Z,8.62
2024-03-05T17:22:13.356Z,8.52
2024-03-05T17:25:15.813Z,8.58
2024-03-05T17:28:17.656Z,8.48
2024-03-05T17:31:19.467Z,8.42
2024-03-05T17:34:22.684Z,8.53
2024-03-05T17:37:24.465Z,8.41
2024-03-05T17:40:26.344Z,8.40
2024-03-05T17:43:28.179Z,8.34
2024-03-05T17:46:29.991Z,7.80
2024-03-05T17:49:33.107Z,7.55
2024-03-05T17:52:35.220Z,7.24
2024-03-05T17:55:37.211Z,6.92
2024-03-05T17:58:39.441Z,7.12
2024-03-05T18:01:41.341Z,7.20
2024-03-05T18:04:44.600Z,7.35
2024-03-05T18:07:47.240Z,7.41
2024-03-05T18:10:49.193Z,7.46
2024-03-05T18:13:51.037Z,7.54
2024-03-05T18:16:52.835Z,7.43
2024-03-05T18:19:56.146Z,7.41
2024-03-05T18:22:57.977Z,7.35
2024-03-05T18:26:00.066Z,7.20
2024-03-05T18:29:01.962Z,7.09
2024-03-05T18:32:04.168Z,6.96
2024-03-05T18:35:08.689Z,6.72
2024-03-05T18:38:20.717Z,6.58
2024-03-05T18:41:29.722Z,6.82
2024-03-05T18:44:31.582Z,6.98
2024-03-05T18:47:33.389Z,7.03
2024-03-05T18:50:36.637Z,6.86
2024-03-05T18:53:43.592Z,6.21
2024-03-05T18:56:50.927Z,6.15
2024-03-05T18:59:52.658Z,6.21
2024-03-05T19:02:54.605Z,6.41
2024-03-05T19:05:57.733Z,6.35
2024-03-05T19:08:59.465Z,6.28
2024-03-05T19:12:01.322Z,5.92
2024-03-05T19:15:03.184Z,6.00
2024-03-05T19:18:05.730Z,6.17
2024-03-05T19:21:09.362Z,6.15
2024-03-05T19:24:11.481Z,6.14
2024-03-05T19:27:13.219Z,5.61
2024-03-05T19:30:15.027Z,5.40
2024-03-05T19:33:16.785Z,5.58
2024-03-05T19:36:19.919Z,5.56
2024-03-05T19:39:21.685Z,5.49
2024-03-05T19:42:23.387Z,5.56
2024-03-05T19:45:25.691Z,4.94
2024-03-05T19:48:27.404Z,4.68
2024-03-05T19:51:30.577Z,4.56
2024-03-05T19:54:32.330Z,4.72
2024-03-05T19:57:34.324Z,4.81
2024-03-05T20:00:36.081Z,4.88
2024-03-05T20:03:38.087Z,4.79
2024-03-05T20:06:41.182Z,4.62
2024-03-05T20:09:43.933Z,4.49
2024-03-05T20:12:45.690Z,4.28
2024-03-05T20:15:47.449Z,4.06
2024-03-05T20:18:49.146Z,3.94
2024-03-05T20:21:52.332Z,3.91
2024-03-05T20:24:54.061Z,4.25
2024-03-05T20:27:55.753Z,4.04
2024-03-05T20:30:57.876Z,3.72
2024-03-05T20:33:59.598Z,3.48
2024-03-05T20:37:02.700Z,3.44
2024-03-05T20:40:04.953Z,3.65
2024-03-05T20:43:08.746Z,3.63
2024-03-05T20:46:11.913Z,3.38
2024-03-05T20:49:13.633Z,3.38
2024-03-05T20:52:16.738Z,3.46
2024-03-05T20:55:18.476Z,3.81
2024-03-05T20:58:20.237Z,4.12
2024-03-05T21:01:22.087Z,4.34
2024-03-05T21:04:23.863Z,4.21
2024-03-05T21:07:26.972Z,4.24
2024-03-05T21:10:28.801Z,4.26
2024-03-05T21:13:30.550Z,4.36
2024-03-05T21:16:32.332Z,4.47
2024-03-05T21:19:34.137Z,4.46
2024-03-05T21:22:38.391Z,4.49
2024-03-05T21:25:50.611Z,4.49
2024-03-05T21:29:01.937Z,4.49
2024-03-05T21:32:03.887Z,4.55
2024-03-05T21:35:05.966Z,4.64
2024-03-05T21:38:09.144Z,4.72
2024-03-05T21:41:10.977Z,4.72
2024-03-05T21:44:19.824Z,4.75
2024-03-05T21:47:27.352Z,4.80
2024-03-05T21:50:29.095Z,4.75
2024-03-05T21:53:32.222Z,4.36
2024-03-05T21:56:33.956Z,3.56
2024-03-05T21:59:35.752Z,3.12
2024-03-05T22:02:37.619Z,2.96
2024-03-05T22:05:39.377Z,3.15
2024-03-05T22:08:42.507Z,3.38
2024-03-05T22:11:44.357Z,3.56
2024-03-05T22:14:46.107Z,3.70
2024-03-05T22:17:47.915Z,3.47
2024-03-05T22:20:49.708Z,3.63
2024-03-05T22:23:52.820Z,3.48
2024-03-05T22:26:54.537Z,3.26
2024-03-05T22:29:56.306Z,3.12
2024-03-05T22:32:58.659Z,3.27
2024-03-05T22:36:00.855Z,3.27
2024-03-05T22:39:03.987Z,3.17
2024-03-05T22:42:07.804Z,3.03
2024-03-05T22:45:10.036Z,3.20
2024-03-05T22:48:11.804Z,3.21
2024-03-05T22:51:13.576Z,3.38
2024-03-05T22:54:16.636Z,3.27
2024-03-05T22:57:18.380Z,3.23
2024-03-05T23:00:20.479Z,3.26
2024-03-05T23:03:22.177Z,3.26
2024-03-05T23:06:25.715Z,3.34
2024-03-05T23:09:29.211Z,3.46
2024-03-05T23:12:30.938Z,3.49
2024-03-05T23:15:33.290Z,3.16
2024-03-05T23:18:35.044Z,3.13
2024-03-05T23:21:36.771Z,3.09
2024-03-05T23:24:39.892Z,3.15
2024-03-05T23:27:42.043Z,3.35
2024-03-05T23:30:43.787Z,3.45
2024-03-05T23:33:45.490Z,3.63
2024-03-05T23:36:47.202Z,3.74
2024-03-05T23:39:50.294Z,3.70
2024-03-05T23:42:52.189Z,3.85
2024-03-05T23:45:53.937Z,3.84
2024-03-05T23:48:55.611Z,3.80
2024-03-05T23:51:57.345Z,3.78
2024-03-05T23:55:02.657Z,3.75
2024-03-05T23:58:05.196Z,3.79
